sensor_id;sensor_type;location;lat;lon;timestamp;temperature;humidity
20487;DHT22;10402;49.012;8.370;2022-07-15T00:00:33;23.40;46.60
20487;DHT22;10402;49.012;8.370;2022-07-15T00:02:59;23.40;46.70
20487;DHT22;10402;49.012;8.370;2022-07-15T00:05:25;23.30;46.70
20487;DHT22;10402;49.012;8.370;2022-07-15T00:07:51;23.30;46.80
20487;DHT22;10402;49.012;8.370;2022-07-15T00:10:17;23.30;47.00
20487;DHT22;10402;49.012;8.370;2022-07-15T00:12:52;23.30;46.90
20487;DHT22;10402;49.012;8.370;2022-07-15T00:15:20;23.20;46.90
20487;DHT22;10402;49.012;8.370;2022-07-15T00:17:46;23.20;47.00
20487;DHT22;10402;49.012;8.370;2022-07-15T00:20:13;23.20;47.10
20487;DHT22;10402;49.012;8.370;2022-07-15T00:22:40;23.10;47.10
20487;DHT22;10402;49.012;8.370;2022-07-15T00:25:06;23.10;47.10
20487;DHT22;10402;49.012;8.370;2022-07-15T00:27:31;23.00;47.20
20487;DHT22;10402;49.012;8.370;2022-07-15T00:29:57;23.00;47.90
20487;DHT22;10402;49.012;8.370;2022-07-15T00:32:23;23.00;47.30
20487;DHT22;10402;49.012;8.370;2022-07-15T00:34:49;23.00;47.30
20487;DHT22;10402;49.012;8.370;2022-07-15T00:37:16;22.90;47.50
20487;DHT22;10402;49.012;8.370;2022-07-15T00:39:42;22.90;47.50
20487;DHT22;10402;49.012;8.370;2022-07-15T00:42:07;22.80;47.50
20487;DHT22;10402;49.012;8.370;2022-07-15T00:44:33;22.80;47.60
20487;DHT22;10402;49.012;8.370;2022-07-15T00:46:58;22.70;47.50
20487;DHT22;10402;49.012;8.370;2022-07-15T00:49:25;22.70;47.70
20487;DHT22;10402;49.012;8.370;2022-07-15T00:51:52;22.60;47.70
20487;DHT22;10402;49.012;8.370;2022-07-15T00:54:23;22.60;47.90
20487;DHT22;10402;49.012;8.370;2022-07-15T00:56:53;22.50;47.90
20487;DHT22;10402;49.012;8.370;2022-07-15T00:59:22;22.40;48.00
20487;DHT22;10402;49.012;8.370;2022-07-15T01:01:48;22.30;48.20
20487;DHT22;10402;49.012;8.370;2022-07-15T01:04:14;22.10;48.40
20487;DHT22;10402;49.012;8.370;2022-07-15T01:06:42;22.10;48.80
20487;DHT22;10402;49.012;8.370;2022-07-15T01:09:08;22.00;48.90
20487;DHT22;10402;49.012;8.370;2022-07-15T01:11:34;21.90;49.00
20487;DHT22;10402;49.012;8.370;2022-07-15T01:14:00;21.90;49.10
20487;DHT22;10402;49.012;8.370;2022-07-15T01:16:26;21.90;49.10
20487;DHT22;10402;49.012;8.370;2022-07-15T01:18:53;21.80;49.30
20487;DHT22;10402;49.012;8.370;2022-07-15T01:21:19;21.70;49.40
20487;DHT22;10402;49.012;8.370;2022-07-15T01:23:45;21.70;49.60
20487;DHT22;10402;49.012;8.370;2022-07-15T01:26:11;21.60;49.60
20487;DHT22;10402;49.012;8.370;2022-07-15T01:28:38;21.60;49.70
20487;DHT22;10402;49.012;8.370;2022-07-15T01:31:04;21.50;49.70
20487;DHT22;10402;49.012;8.370;2022-07-15T01:33:31;21.50;49.70
20487;DHT22;10402;49.012;8.370;2022-07-15T01:35:57;21.50;49.90
20487;DHT22;10402;49.012;8.370;2022-07-15T01:38:23;21.40;50.00
20487;DHT22;10402;49.012;8.370;2022-07-15T01:40:49;21.40;50.00
20487;DHT22;10402;49.012;8.370;2022-07-15T01:43:14;21.40;50.20
20487;DHT22;10402;49.012;8.370;2022-07-15T01:45:44;21.30;50.30
20487;DHT22;10402;49.012;8.370;2022-07-15T01:48:10;21.30;50.40
20487;DHT22;10402;49.012;8.370;2022-07-15T01:50:57;21.20;50.50
20487;DHT22;10402;49.012;8.370;2022-07-15T01:53:24;21.20;50.70
20487;DHT22;10402;49.012;8.370;2022-07-15T01:55:49;21.10;50.70
20487;DHT22;10402;49.012;8.370;2022-07-15T01:58:15;21.10;50.80
20487;DHT22;10402;49.012;8.370;2022-07-15T02:00:41;21.00;50.80
20487;DHT22;10402;49.012;8.370;2022-07-15T02:03:07;21.00;50.80
20487;DHT22;10402;49.012;8.370;2022-07-15T02:05:33;21.00;50.90
20487;DHT22;10402;49.012;8.370;2022-07-15T02:07:59;20.90;50.80
20487;DHT22;10402;49.012;8.370;2022-07-15T02:10:25;20.90;50.80
20487;DHT22;10402;49.012;8.370;2022-07-15T02:12:50;20.80;50.90
20487;DHT22;10402;49.012;8.370;2022-07-15T02:15:16;20.70;51.00
20487;DHT22;10402;49.012;8.370;2022-07-15T02:17:42;20.70;51.10
20487;DHT22;10402;49.012;8.370;2022-07-15T02:20:08;20.70;51.20
20487;DHT22;10402;49.012;8.370;2022-07-15T02:22:33;20.70;51.20
20487;DHT22;10402;49.012;8.370;2022-07-15T02:24:59;20.60;51.30
20487;DHT22;10402;49.012;8.370;2022-07-15T02:27:24;20.60;51.30
20487;DHT22;10402;49.012;8.370;2022-07-15T02:29:50;20.60;51.30
20487;DHT22;10402;49.012;8.370;2022-07-15T02:32:15;20.50;51.20
20487;DHT22;10402;49.012;8.370;2022-07-15T02:34:41;20.60;51.40
20487;DHT22;10402;49.012;8.370;2022-07-15T02:37:06;20.50;51.30
20487;DHT22;10402;49.012;8.370;2022-07-15T02:39:32;20.50;51.30
20487;DHT22;10402;49.012;8.370;2022-07-15T02:41:57;20.50;51.30
20487;DHT22;10402;49.012;8.370;2022-07-15T02:44:23;20.60;51.40
20487;DHT22;10402;49.012;8.370;2022-07-15T02:46:49;20.60;51.40
20487;DHT22;10402;49.012;8.370;2022-07-15T02:49:15;20.60;51.40
20487;DHT22;10402;49.012;8.370;2022-07-15T02:51:40;20.60;51.30
20487;DHT22;10402;49.012;8.370;2022-07-15T02:54:06;20.60;51.30
20487;DHT22;10402;49.012;8.370;2022-07-15T02:56:32;20.60;51.40
20487;DHT22;10402;49.012;8.370;2022-07-15T02:58:57;20.60;51.60
20487;DHT22;10402;49.012;8.370;2022-07-15T03:01:23;20.60;51.70
20487;DHT22;10402;49.012;8.370;2022-07-15T03:03:48;20.60;51.60
20487;DHT22;10402;49.012;8.370;2022-07-15T03:06:14;20.60;51.70
20487;DHT22;10402;49.012;8.370;2022-07-15T03:08:39;20.60;51.70
20487;DHT22;10402;49.012;8.370;2022-07-15T03:11:05;20.60;51.70
20487;DHT22;10402;49.012;8.370;2022-07-15T03:13:30;20.60;51.70
20487;DHT22;10402;49.012;8.370;2022-07-15T03:15:56;20.60;51.70
20487;DHT22;10402;49.012;8.370;2022-07-15T03:18:22;20.60;51.90
20487;DHT22;10402;49.012;8.370;2022-07-15T03:20:47;20.60;52.00
20487;DHT22;10402;49.012;8.370;2022-07-15T03:23:14;20.50;52.00
20487;DHT22;10402;49.012;8.370;2022-07-15T03:25:39;20.40;52.10
20487;DHT22;10402;49.012;8.370;2022-07-15T03:28:05;20.30;52.30
20487;DHT22;10402;49.012;8.370;2022-07-15T03:30:31;20.30;52.40
20487;DHT22;10402;49.012;8.370;2022-07-15T03:32:56;20.20;52.40
20487;DHT22;10402;49.012;8.370;2022-07-15T03:35:22;20.20;52.60
20487;DHT22;10402;49.012;8.370;2022-07-15T03:37:48;20.20;52.60
20487;DHT22;10402;49.012;8.370;2022-07-15T03:40:13;20.10;52.80
20487;DHT22;10402;49.012;8.370;2022-07-15T03:42:39;20.10;52.80
20487;DHT22;10402;49.012;8.370;2022-07-15T03:45:05;20.10;52.90
20487;DHT22;10402;49.012;8.370;2022-07-15T03:47:30;20.00;52.90
20487;DHT22;10402;49.012;8.370;2022-07-15T03:49:56;20.10;53.00
20487;DHT22;10402;49.012;8.370;2022-07-15T03:52:21;20.10;53.10
20487;DHT22;10402;49.012;8.370;2022-07-15T03:54:47;20.00;53.20
20487;DHT22;10402;49.012;8.370;2022-07-15T03:57:13;19.90;53.30
20487;DHT22;10402;49.012;8.370;2022-07-15T03:59:38;19.90;53.40
20487;DHT22;10402;49.012;8.370;2022-07-15T04:02:04;19.90;53.40
20487;DHT22;10402;49.012;8.370;2022-07-15T04:04:29;19.90;53.50
20487;DHT22;10402;49.012;8.370;2022-07-15T04:06:55;19.80;53.60
20487;DHT22;10402;49.012;8.370;2022-07-15T04:09:20;19.80;53.70
20487;DHT22;10402;49.012;8.370;2022-07-15T04:11:46;19.80;53.80
20487;DHT22;10402;49.012;8.370;2022-07-15T04:14:12;19.80;53.80
20487;DHT22;10402;49.012;8.370;2022-07-15T04:16:38;19.80;53.90
20487;DHT22;10402;49.012;8.370;2022-07-15T04:19:04;19.80;53.90
20487;DHT22;10402;49.012;8.370;2022-07-15T04:21:29;19.70;54.00
20487;DHT22;10402;49.012;8.370;2022-07-15T04:23:55;19.70;54.10
20487;DHT22;10402;49.012;8.370;2022-07-15T04:26:20;19.70;54.10
20487;DHT22;10402;49.012;8.370;2022-07-15T04:28:46;19.60;54.10
20487;DHT22;10402;49.012;8.370;2022-07-15T04:31:12;19.60;54.20
20487;DHT22;10402;49.012;8.370;2022-07-15T04:33:38;19.60;54.30
20487;DHT22;10402;49.012;8.370;2022-07-15T04:36:04;19.60;54.40
20487;DHT22;10402;49.012;8.370;2022-07-15T04:38:29;19.60;54.40
20487;DHT22;10402;49.012;8.370;2022-07-15T04:40:55;19.60;54.40
20487;DHT22;10402;49.012;8.370;2022-07-15T04:43:20;19.60;54.50
20487;DHT22;10402;49.012;8.370;2022-07-15T04:45:46;19.60;54.60
20487;DHT22;10402;49.012;8.370;2022-07-15T04:48:12;19.60;54.70
20487;DHT22;10402;49.012;8.370;2022-07-15T04:50:56;19.50;54.70
20487;DHT22;10402;49.012;8.370;2022-07-15T04:53:23;19.50;54.80
20487;DHT22;10402;49.012;8.370;2022-07-15T04:55:48;19.40;54.90
20487;DHT22;10402;49.012;8.370;2022-07-15T04:58:14;19.40;55.00
20487;DHT22;10402;49.012;8.370;2022-07-15T05:00:42;19.40;55.10
20487;DHT22;10402;49.012;8.370;2022-07-15T05:03:08;19.40;55.20
20487;DHT22;10402;49.012;8.370;2022-07-15T05:05:33;19.30;55.10
20487;DHT22;10402;49.012;8.370;2022-07-15T05:07:59;19.30;55.30
20487;DHT22;10402;49.012;8.370;2022-07-15T05:10:25;19.30;55.40
20487;DHT22;10402;49.012;8.370;2022-07-15T05:12:50;19.20;55.40
20487;DHT22;10402;49.012;8.370;2022-07-15T05:15:16;19.30;55.50
20487;DHT22;10402;49.012;8.370;2022-07-15T05:17:41;19.30;55.50
20487;DHT22;10402;49.012;8.370;2022-07-15T05:20:07;19.30;55.50
20487;DHT22;10402;49.012;8.370;2022-07-15T05:22:33;19.30;55.50
20487;DHT22;10402;49.012;8.370;2022-07-15T05:24:58;19.30;55.50
20487;DHT22;10402;49.012;8.370;2022-07-15T05:27:24;19.30;55.70
20487;DHT22;10402;49.012;8.370;2022-07-15T05:29:49;19.20;55.80
20487;DHT22;10402;49.012;8.370;2022-07-15T05:32:15;19.10;56.00
20487;DHT22;10402;49.012;8.370;2022-07-15T05:34:41;19.10;56.10
20487;DHT22;10402;49.012;8.370;2022-07-15T05:37:06;19.10;56.10
20487;DHT22;10402;49.012;8.370;2022-07-15T05:39:32;19.10;56.20
20487;DHT22;10402;49.012;8.370;2022-07-15T05:41:57;19.20;56.30
20487;DHT22;10402;49.012;8.370;2022-07-15T05:44:24;19.20;56.20
20487;DHT22;10402;49.012;8.370;2022-07-15T05:46:49;19.30;56.20
20487;DHT22;10402;49.012;8.370;2022-07-15T05:49:16;19.30;56.10
20487;DHT22;10402;49.012;8.370;2022-07-15T05:51:41;19.30;56.10
20487;DHT22;10402;49.012;8.370;2022-07-15T05:54:07;19.20;56.00
20487;DHT22;10402;49.012;8.370;2022-07-15T05:56:32;19.30;56.00
20487;DHT22;10402;49.012;8.370;2022-07-15T05:58:58;19.40;55.90
20487;DHT22;10402;49.012;8.370;2022-07-15T06:01:24;19.40;55.80
20487;DHT22;10402;49.012;8.370;2022-07-15T06:03:50;19.50;55.80
20487;DHT22;10402;49.012;8.370;2022-07-15T06:06:16;19.60;55.70
20487;DHT22;10402;49.012;8.370;2022-07-15T06:08:42;19.70;55.50
20487;DHT22;10402;49.012;8.370;2022-07-15T06:11:07;19.70;55.40
20487;DHT22;10402;49.012;8.370;2022-07-15T06:13:33;19.80;55.40
20487;DHT22;10402;49.012;8.370;2022-07-15T06:15:59;19.80;55.20
20487;DHT22;10402;49.012;8.370;2022-07-15T06:18:25;19.80;55.10
20487;DHT22;10402;49.012;8.370;2022-07-15T06:20:51;19.90;55.00
20487;DHT22;10402;49.012;8.370;2022-07-15T06:23:17;20.00;54.90
20487;DHT22;10402;49.012;8.370;2022-07-15T06:25:42;20.10;54.80
20487;DHT22;10402;49.012;8.370;2022-07-15T06:28:08;20.20;54.60
20487;DHT22;10402;49.012;8.370;2022-07-15T06:30:33;20.30;54.50
20487;DHT22;10402;49.012;8.370;2022-07-15T06:32:59;20.30;54.20
20487;DHT22;10402;49.012;8.370;2022-07-15T06:35:25;20.40;54.10
20487;DHT22;10402;49.012;8.370;2022-07-15T06:37:50;20.40;54.00
20487;DHT22;10402;49.012;8.370;2022-07-15T06:40:17;20.50;54.00
20487;DHT22;10402;49.012;8.370;2022-07-15T06:42:42;20.50;53.90
20487;DHT22;10402;49.012;8.370;2022-07-15T06:45:08;20.50;53.80
20487;DHT22;10402;49.012;8.370;2022-07-15T06:47:36;20.50;53.70
20487;DHT22;10402;49.012;8.370;2022-07-15T06:50:02;20.60;53.80
20487;DHT22;10402;49.012;8.370;2022-07-15T06:52:28;20.60;53.70
20487;DHT22;10402;49.012;8.370;2022-07-15T06:54:53;20.60;53.60
20487;DHT22;10402;49.012;8.370;2022-07-15T06:57:19;20.60;53.50
20487;DHT22;10402;49.012;8.370;2022-07-15T06:59:44;20.70;53.50
20487;DHT22;10402;49.012;8.370;2022-07-15T07:02:10;20.70;54.10
20487;DHT22;10402;49.012;8.370;2022-07-15T07:04:35;20.80;53.40
20487;DHT22;10402;49.012;8.370;2022-07-15T07:07:01;20.80;53.90
20487;DHT22;10402;49.012;8.370;2022-07-15T07:09:27;20.90;53.30
20487;DHT22;10402;49.012;8.370;2022-07-15T07:11:52;20.90;53.20
20487;DHT22;10402;49.012;8.370;2022-07-15T07:14:18;21.00;53.10
20487;DHT22;10402;49.012;8.370;2022-07-15T07:16:44;21.10;52.90
20487;DHT22;10402;49.012;8.370;2022-07-15T07:19:11;21.10;52.90
20487;DHT22;10402;49.012;8.370;2022-07-15T07:21:37;21.20;52.90
20487;DHT22;10402;49.012;8.370;2022-07-15T07:24:02;21.20;52.70
20487;DHT22;10402;49.012;8.370;2022-07-15T07:26:28;21.20;52.60
20487;DHT22;10402;49.012;8.370;2022-07-15T07:28:54;21.20;52.60
20487;DHT22;10402;49.012;8.370;2022-07-15T07:31:20;21.30;52.50
20487;DHT22;10402;49.012;8.370;2022-07-15T07:33:51;21.40;52.40
20487;DHT22;10402;49.012;8.370;2022-07-15T07:36:17;21.40;52.00
20487;DHT22;10402;49.012;8.370;2022-07-15T07:38:42;21.40;52.00
20487;DHT22;10402;49.012;8.370;2022-07-15T07:41:08;21.50;52.10
20487;DHT22;10402;49.012;8.370;2022-07-15T07:43:33;21.50;52.00
20487;DHT22;10402;49.012;8.370;2022-07-15T07:46:00;21.50;52.00
20487;DHT22;10402;49.012;8.370;2022-07-15T07:48:26;21.60;52.10
20487;DHT22;10402;49.012;8.370;2022-07-15T07:50:52;21.60;51.90
20487;DHT22;10402;49.012;8.370;2022-07-15T07:53:18;21.70;51.80
20487;DHT22;10402;49.012;8.370;2022-07-15T07:55:44;21.80;51.50
20487;DHT22;10402;49.012;8.370;2022-07-15T07:58:09;21.80;51.30
20487;DHT22;10402;49.012;8.370;2022-07-15T08:00:37;21.80;51.40
20487;DHT22;10402;49.012;8.370;2022-07-15T08:03:03;21.80;51.20
20487;DHT22;10402;49.012;8.370;2022-07-15T08:05:28;21.90;51.20
20487;DHT22;10402;49.012;8.370;2022-07-15T08:10:34;22.10;50.90
20487;DHT22;10402;49.012;8.370;2022-07-15T08:13:00;22.10;50.50
20487;DHT22;10402;49.012;8.370;2022-07-15T08:15:26;22.20;50.60
20487;DHT22;10402;49.012;8.370;2022-07-15T08:17:52;22.30;50.50
20487;DHT22;10402;49.012;8.370;2022-07-15T08:20:18;22.40;50.30
20487;DHT22;10402;49.012;8.370;2022-07-15T08:22:43;22.40;50.20
20487;DHT22;10402;49.012;8.370;2022-07-15T08:25:09;22.50;50.20
20487;DHT22;10402;49.012;8.370;2022-07-15T08:27:34;22.50;49.90
20487;DHT22;10402;49.012;8.370;2022-07-15T08:30:00;22.50;49.70
20487;DHT22;10402;49.012;8.370;2022-07-15T08:32:25;22.60;49.70
20487;DHT22;10402;49.012;8.370;2022-07-15T08:34:51;22.60;49.40
20487;DHT22;10402;49.012;8.370;2022-07-15T08:37:16;22.60;49.20
20487;DHT22;10402;49.012;8.370;2022-07-15T08:39:42;22.60;49.10
20487;DHT22;10402;49.012;8.370;2022-07-15T08:42:08;22.70;49.20
20487;DHT22;10402;49.012;8.370;2022-07-15T08:44:33;22.70;49.10
20487;DHT22;10402;49.012;8.370;2022-07-15T08:47:02;22.80;49.00
20487;DHT22;10402;49.012;8.370;2022-07-15T08:49:30;22.70;48.90
20487;DHT22;10402;49.012;8.370;2022-07-15T08:51:58;22.80;49.00
20487;DHT22;10402;49.012;8.370;2022-07-15T08:54:25;22.80;48.80
20487;DHT22;10402;49.012;8.370;2022-07-15T08:56:51;22.80;48.80
20487;DHT22;10402;49.012;8.370;2022-07-15T08:59:17;22.90;49.30
20487;DHT22;10402;49.012;8.370;2022-07-15T09:01:47;22.90;48.70
20487;DHT22;10402;49.012;8.370;2022-07-15T09:04:14;23.00;48.70
20487;DHT22;10402;49.012;8.370;2022-07-15T09:06:49;23.10;48.50
20487;DHT22;10402;49.012;8.370;2022-07-15T09:11:43;23.10;48.40
20487;DHT22;10402;49.012;8.370;2022-07-15T09:14:13;23.10;48.20
20487;DHT22;10402;49.012;8.370;2022-07-15T09:16:38;23.00;48.20
20487;DHT22;10402;49.012;8.370;2022-07-15T09:19:04;23.10;48.20
20487;DHT22;10402;49.012;8.370;2022-07-15T09:21:29;23.10;48.70
20487;DHT22;10402;49.012;8.370;2022-07-15T09:23:55;23.20;47.90
20487;DHT22;10402;49.012;8.370;2022-07-15T09:26:39;23.30;47.90
20487;DHT22;10402;49.012;8.370;2022-07-15T09:29:05;23.30;47.70
20487;DHT22;10402;49.012;8.370;2022-07-15T09:31:58;23.30;47.60
20487;DHT22;10402;49.012;8.370;2022-07-15T09:35:03;23.40;47.60
20487;DHT22;10402;49.012;8.370;2022-07-15T09:37:29;23.40;47.60
20487;DHT22;10402;49.012;8.370;2022-07-15T09:39:56;23.50;47.60
20487;DHT22;10402;49.012;8.370;2022-07-15T09:42:22;23.60;47.40
20487;DHT22;10402;49.012;8.370;2022-07-15T09:44:47;23.70;47.30
20487;DHT22;10402;49.012;8.370;2022-07-15T09:47:20;23.70;47.30
20487;DHT22;10402;49.012;8.370;2022-07-15T09:49:48;23.80;47.70
20487;DHT22;10402;49.012;8.370;2022-07-15T09:52:14;23.80;47.00
20487;DHT22;10402;49.012;8.370;2022-07-15T09:54:45;23.80;47.00
20487;DHT22;10402;49.012;8.370;2022-07-15T09:57:13;23.80;47.00
20487;DHT22;10402;49.012;8.370;2022-07-15T09:59:44;23.80;46.90
20487;DHT22;10402;49.012;8.370;2022-07-15T10:02:10;23.80;46.70
20487;DHT22;10402;49.012;8.370;2022-07-15T10:04:37;23.80;46.60
20487;DHT22;10402;49.012;8.370;2022-07-15T10:07:04;23.80;46.50
20487;DHT22;10402;49.012;8.370;2022-07-15T10:09:33;23.90;46.60
20487;DHT22;10402;49.012;8.370;2022-07-15T10:12:13;23.90;46.60
20487;DHT22;10402;49.012;8.370;2022-07-15T10:15:11;23.90;46.60
20487;DHT22;10402;49.012;8.370;2022-07-15T10:17:51;23.90;46.60
20487;DHT22;10402;49.012;8.370;2022-07-15T10:20:27;23.90;46.10
20487;DHT22;10402;49.012;8.370;2022-07-15T10:33:41;23.90;45.80
20487;DHT22;10402;49.012;8.370;2022-07-15T10:36:08;23.80;45.50
20487;DHT22;10402;49.012;8.370;2022-07-15T10:38:38;23.70;45.20
20487;DHT22;10402;49.012;8.370;2022-07-15T10:51:12;24.00;45.00
20487;DHT22;10402;49.012;8.370;2022-07-15T10:53:48;24.10;45.00
20487;DHT22;10402;49.012;8.370;2022-07-15T10:56:30;24.20;45.10
20487;DHT22;10402;49.012;8.370;2022-07-15T10:59:09;24.20;44.90
20487;DHT22;10402;49.012;8.370;2022-07-15T11:01:36;24.20;44.90
20487;DHT22;10402;49.012;8.370;2022-07-15T11:09:47;24.30;44.80
20487;DHT22;10402;49.012;8.370;2022-07-15T11:12:20;24.30;44.80
20487;DHT22;10402;49.012;8.370;2022-07-15T11:14:52;24.40;44.70
20487;DHT22;10402;49.012;8.370;2022-07-15T11:17:41;24.40;44.60
20487;DHT22;10402;49.012;8.370;2022-07-15T11:20:09;24.40;44.60
20487;DHT22;10402;49.012;8.370;2022-07-15T11:22:38;24.40;44.70
20487;DHT22;10402;49.012;8.370;2022-07-15T11:25:05;24.40;44.80
20487;DHT22;10402;49.012;8.370;2022-07-15T11:27:31;24.40;44.60
20487;DHT22;10402;49.012;8.370;2022-07-15T11:29:59;24.40;44.50
20487;DHT22;10402;49.012;8.370;2022-07-15T11:32:29;24.50;44.50
20487;DHT22;10402;49.012;8.370;2022-07-15T11:34:58;24.40;44.40
20487;DHT22;10402;49.012;8.370;2022-07-15T11:37:31;24.40;44.50
20487;DHT22;10402;49.012;8.370;2022-07-15T11:40:16;24.40;44.40
20487;DHT22;10402;49.012;8.370;2022-07-15T11:43:01;24.40;44.40
20487;DHT22;10402;49.012;8.370;2022-07-15T11:45:47;24.40;44.30
20487;DHT22;10402;49.012;8.370;2022-07-15T11:48:13;24.40;44.20
20487;DHT22;10402;49.012;8.370;2022-07-15T11:50:49;24.40;44.30
20487;DHT22;10402;49.012;8.370;2022-07-15T11:53:16;24.40;44.10
20487;DHT22;10402;49.012;8.370;2022-07-15T11:55:58;24.40;44.10
20487;DHT22;10402;49.012;8.370;2022-07-15T11:58:29;24.40;44.00
20487;DHT22;10402;49.012;8.370;2022-07-15T12:00:55;24.50;44.00
20487;DHT22;10402;49.012;8.370;2022-07-15T12:03:20;24.50;44.00
20487;DHT22;10402;49.012;8.370;2022-07-15T12:06:08;24.50;43.90
20487;DHT22;10402;49.012;8.370;2022-07-15T12:08:40;24.50;43.70
20487;DHT22;10402;49.012;8.370;2022-07-15T12:11:14;24.50;44.10
20487;DHT22;10402;49.012;8.370;2022-07-15T12:13:46;24.50;43.90
20487;DHT22;10402;49.012;8.370;2022-07-15T12:16:13;24.50;43.70
20487;DHT22;10402;49.012;8.370;2022-07-15T12:18:39;24.50;43.70
20487;DHT22;10402;49.012;8.370;2022-07-15T12:21:06;24.50;43.70
20487;DHT22;10402;49.012;8.370;2022-07-15T12:23:31;24.60;43.80
20487;DHT22;10402;49.012;8.370;2022-07-15T12:26:06;24.70;43.50
20487;DHT22;10402;49.012;8.370;2022-07-15T12:28:32;24.70;43.60
20487;DHT22;10402;49.012;8.370;2022-07-15T12:30:58;24.70;43.50
20487;DHT22;10402;49.012;8.370;2022-07-15T12:33:25;24.80;43.60
20487;DHT22;10402;49.012;8.370;2022-07-15T12:36:15;24.80;43.40
20487;DHT22;10402;49.012;8.370;2022-07-15T12:38:42;24.80;43.50
20487;DHT22;10402;49.012;8.370;2022-07-15T12:41:10;24.90;43.40
20487;DHT22;10402;49.012;8.370;2022-07-15T12:43:53;24.90;43.40
20487;DHT22;10402;49.012;8.370;2022-07-15T12:46:20;25.00;43.40
20487;DHT22;10402;49.012;8.370;2022-07-15T12:48:47;24.90;43.30
20487;DHT22;10402;49.012;8.370;2022-07-15T12:51:15;25.00;43.30
20487;DHT22;10402;49.012;8.370;2022-07-15T12:53:41;25.10;43.40
20487;DHT22;10402;49.012;8.370;2022-07-15T12:56:07;25.10;43.40
20487;DHT22;10402;49.012;8.370;2022-07-15T12:58:33;25.30;43.30
20487;DHT22;10402;49.012;8.370;2022-07-15T13:01:13;25.30;43.00
20487;DHT22;10402;49.012;8.370;2022-07-15T13:03:42;25.30;43.00
20487;DHT22;10402;49.012;8.370;2022-07-15T13:06:08;25.30;42.90
20487;DHT22;10402;49.012;8.370;2022-07-15T13:08:38;25.20;43.00
20487;DHT22;10402;49.012;8.370;2022-07-15T13:11:06;25.30;43.10
20487;DHT22;10402;49.012;8.370;2022-07-15T13:13:35;25.20;42.90
20487;DHT22;10402;49.012;8.370;2022-07-15T13:16:02;25.10;43.00
20487;DHT22;10402;49.012;8.370;2022-07-15T13:18:30;25.00;43.10
20487;DHT22;10402;49.012;8.370;2022-07-15T13:20:56;25.00;43.20
20487;DHT22;10402;49.012;8.370;2022-07-15T13:23:23;25.10;43.20
20487;DHT22;10402;49.012;8.370;2022-07-15T13:25:48;25.10;43.00
20487;DHT22;10402;49.012;8.370;2022-07-15T13:28:16;25.20;42.90
20487;DHT22;10402;49.012;8.370;2022-07-15T13:30:42;25.20;42.90
20487;DHT22;10402;49.012;8.370;2022-07-15T13:33:07;25.20;42.90
20487;DHT22;10402;49.012;8.370;2022-07-15T13:35:33;25.20;42.80
20487;DHT22;10402;49.012;8.370;2022-07-15T13:37:59;25.30;42.80
20487;DHT22;10402;49.012;8.370;2022-07-15T13:40:25;25.30;42.60
20487;DHT22;10402;49.012;8.370;2022-07-15T13:42:50;25.30;42.60
20487;DHT22;10402;49.012;8.370;2022-07-15T13:45:17;25.40;42.60
20487;DHT22;10402;49.012;8.370;2022-07-15T13:47:43;25.40;42.60
20487;DHT22;10402;49.012;8.370;2022-07-15T13:50:09;25.40;42.50
20487;DHT22;10402;49.012;8.370;2022-07-15T13:52:57;25.40;42.40
20487;DHT22;10402;49.012;8.370;2022-07-15T13:55:23;25.50;42.30
20487;DHT22;10402;49.012;8.370;2022-07-15T13:57:50;25.50;42.30
20487;DHT22;10402;49.012;8.370;2022-07-15T14:00:18;25.50;42.30
20487;DHT22;10402;49.012;8.370;2022-07-15T14:02:45;25.50;42.20
20487;DHT22;10402;49.012;8.370;2022-07-15T14:05:12;25.50;42.30
20487;DHT22;10402;49.012;8.370;2022-07-15T14:07:38;25.50;42.60
20487;DHT22;10402;49.012;8.370;2022-07-15T14:10:04;25.60;42.80
20487;DHT22;10402;49.012;8.370;2022-07-15T14:12:30;25.60;42.00
20487;DHT22;10402;49.012;8.370;2022-07-15T14:14:56;25.60;42.00
20487;DHT22;10402;49.012;8.370;2022-07-15T14:17:22;25.70;42.10
20487;DHT22;10402;49.012;8.370;2022-07-15T14:19:48;25.70;42.00
20487;DHT22;10402;49.012;8.370;2022-07-15T14:22:13;25.70;42.00
20487;DHT22;10402;49.012;8.370;2022-07-15T14:24:39;25.80;42.00
20487;DHT22;10402;49.012;8.370;2022-07-15T14:27:04;25.80;42.00
20487;DHT22;10402;49.012;8.370;2022-07-15T14:29:30;25.80;42.00
20487;DHT22;10402;49.012;8.370;2022-07-15T14:31:56;25.80;42.00
20487;DHT22;10402;49.012;8.370;2022-07-15T14:34:22;25.70;42.00
20487;DHT22;10402;49.012;8.370;2022-07-15T14:36:47;25.70;42.00
20487;DHT22;10402;49.012;8.370;2022-07-15T14:39:13;25.70;42.00
20487;DHT22;10402;49.012;8.370;2022-07-15T14:41:39;25.80;42.00
20487;DHT22;10402;49.012;8.370;2022-07-15T14:44:05;25.80;41.90
20487;DHT22;10402;49.012;8.370;2022-07-15T14:46:31;25.70;41.80
20487;DHT22;10402;49.012;8.370;2022-07-15T14:48:57;25.60;41.90
20487;DHT22;10402;49.012;8.370;2022-07-15T14:51:22;25.60;41.90
20487;DHT22;10402;49.012;8.370;2022-07-15T14:53:48;25.70;42.00
20487;DHT22;10402;49.012;8.370;2022-07-15T14:56:13;25.60;41.90
20487;DHT22;10402;49.012;8.370;2022-07-15T14:58:39;25.70;42.00
20487;DHT22;10402;49.012;8.370;2022-07-15T15:01:05;25.70;42.00
20487;DHT22;10402;49.012;8.370;2022-07-15T15:03:30;25.80;41.90
20487;DHT22;10402;49.012;8.370;2022-07-15T15:05:56;25.80;41.60
20487;DHT22;10402;49.012;8.370;2022-07-15T15:08:23;25.80;41.70
20487;DHT22;10402;49.012;8.370;2022-07-15T15:10:49;25.70;41.60
20487;DHT22;10402;49.012;8.370;2022-07-15T15:13:15;25.70;41.70
20487;DHT22;10402;49.012;8.370;2022-07-15T15:15:41;25.70;41.50
20487;DHT22;10402;49.012;8.370;2022-07-15T15:18:07;25.70;41.70
20487;DHT22;10402;49.012;8.370;2022-07-15T15:20:33;25.70;41.70
20487;DHT22;10402;49.012;8.370;2022-07-15T15:22:58;25.70;41.70
20487;DHT22;10402;49.012;8.370;2022-07-15T15:25:24;25.80;41.70
20487;DHT22;10402;49.012;8.370;2022-07-15T15:28:08;25.80;41.70
20487;DHT22;10402;49.012;8.370;2022-07-15T15:30:33;25.90;41.70
20487;DHT22;10402;49.012;8.370;2022-07-15T15:32:59;25.90;41.70
20487;DHT22;10402;49.012;8.370;2022-07-15T15:35:25;25.80;41.70
20487;DHT22;10402;49.012;8.370;2022-07-15T15:37:51;25.80;41.60
20487;DHT22;10402;49.012;8.370;2022-07-15T15:40:17;25.80;41.60
20487;DHT22;10402;49.012;8.370;2022-07-15T15:42:42;25.80;41.60
20487;DHT22;10402;49.012;8.370;2022-07-15T15:45:08;25.80;41.70
20487;DHT22;10402;49.012;8.370;2022-07-15T15:47:35;25.80;41.80
20487;DHT22;10402;49.012;8.370;2022-07-15T15:50:00;25.70;41.80
20487;DHT22;10402;49.012;8.370;2022-07-15T15:52:26;25.80;41.80
20487;DHT22;10402;49.012;8.370;2022-07-15T15:54:51;25.80;41.80
20487;DHT22;10402;49.012;8.370;2022-07-15T15:57:17;25.80;41.90
20487;DHT22;10402;49.012;8.370;2022-07-15T15:59:43;25.80;41.80
20487;DHT22;10402;49.012;8.370;2022-07-15T16:02:08;25.80;41.70